sensor_id;sensor_type;location;lat;lon;timestamp;P1;durP1;ratioP1;P2;durP2;ratioP2
19965;SDS011;10144;50.874;4.762;2023-05-29T00:00:28;13.32;;;3.97;;
19965;SDS011;10144;50.874;4.762;2023-05-29T00:05:29;14.20;;;4.43;;
19965;SDS011;10144;50.874;4.762;2023-05-29T00:07:57;10.52;;;3.78;;
19965;SDS011;10144;50.874;4.762;2023-05-29T00:10:26;15.57;;;4.05;;
19965;SDS011;10144;50.874;4.762;2023-05-29T00:12:55;15.65;;;4.60;;
19965;SDS011;10144;50.874;4.762;2023-05-29T00:15:24;11.48;;;4.32;;
19965;SDS011;10144;50.874;4.762;2023-05-29T00:21:03;12.85;;;4.50;;
19965;SDS011;10144;50.874;4.762;2023-05-29T00:23:30;12.27;;;3.88;;
19965;SDS011;10144;50.874;4.762;2023-05-29T00:28:59;9.68;;;4.10;;
19965;SDS011;10144;50.874;4.762;2023-05-29T00:33:57;10.93;;;4.30;;
19965;SDS011;10144;50.874;4.762;2023-05-29T00:36:28;10.23;;;4.20;;
19965;SDS011;10144;50.874;4.762;2023-05-29T00:38:55;12.02;;;4.45;;
19965;SDS011;10144;50.874;4.762;2023-05-29T00:43:54;10.40;;;4.15;;
19965;SDS011;10144;50.874;4.762;2023-05-29T00:46:21;13.63;;;3.95;;
19965;SDS011;10144;50.874;4.762;2023-05-29T00:51:27;13.77;;;4.53;;
19965;SDS011;10144;50.874;4.762;2023-05-29T00:53:54;12.27;;;4.60;;
19965;SDS011;10144;50.874;4.762;2023-05-29T00:56:24;10.85;;;4.30;;
19965;SDS011;10144;50.874;4.762;2023-05-29T00:58:54;10.88;;;4.45;;
19965;SDS011;10144;50.874;4.762;2023-05-29T01:03:53;11.60;;;4.40;;
19965;SDS011;10144;50.874;4.762;2023-05-29T01:06:23;12.95;;;4.80;;
19965;SDS011;10144;50.874;4.762;2023-05-29T01:08:50;15.75;;;5.10;;
19965;SDS011;10144;50.874;4.762;2023-05-29T01:27:47;14.77;;;5.43;;
19965;SDS011;10144;50.874;4.762;2023-05-29T01:32:46;14.97;;;5.77;;
19965;SDS011;10144;50.874;4.762;2023-05-29T01:35:14;18.60;;;5.97;;
19965;SDS011;10144;50.874;4.762;2023-05-29T01:37:47;14.63;;;5.50;;
19965;SDS011;10144;50.874;4.762;2023-05-29T01:40:13;13.53;;;5.30;;
19965;SDS011;10144;50.874;4.762;2023-05-29T01:42:39;12.65;;;5.45;;
19965;SDS011;10144;50.874;4.762;2023-05-29T01:45:14;14.17;;;5.40;;
19965;SDS011;10144;50.874;4.762;2023-05-29T01:47:42;22.50;;;6.43;;
19965;SDS011;10144;50.874;4.762;2023-05-29T01:50:09;14.40;;;5.17;;
19965;SDS011;10144;50.874;4.762;2023-05-29T01:55:13;17.30;;;6.00;;
19965;SDS011;10144;50.874;4.762;2023-05-29T02:00:18;18.53;;;5.90;;
19965;SDS011;10144;50.874;4.762;2023-05-29T02:02:44;17.33;;;5.83;;
19965;SDS011;10144;50.874;4.762;2023-05-29T02:07:59;15.83;;;5.80;;
19965;SDS011;10144;50.874;4.762;2023-05-29T02:10:30;20.27;;;6.50;;
19965;SDS011;10144;50.874;4.762;2023-05-29T02:13:02;16.43;;;6.23;;
19965;SDS011;10144;50.874;4.762;2023-05-29T02:15:29;15.27;;;5.80;;
19965;SDS011;10144;50.874;4.762;2023-05-29T02:17:55;16.60;;;5.80;;
19965;SDS011;10144;50.874;4.762;2023-05-29T02:20:24;19.30;;;5.83;;
19965;SDS011;10144;50.874;4.762;2023-05-29T02:25:21;15.13;;;5.70;;
19965;SDS011;10144;50.874;4.762;2023-05-29T02:27:53;19.17;;;6.10;;
19965;SDS011;10144;50.874;4.762;2023-05-29T02:30:22;14.97;;;5.83;;
19965;SDS011;10144;50.874;4.762;2023-05-29T02:32:59;13.13;;;5.23;;
19965;SDS011;10144;50.874;4.762;2023-05-29T02:35:27;12.47;;;5.00;;
19965;SDS011;10144;50.874;4.762;2023-05-29T02:40:44;15.23;;;5.17;;
19965;SDS011;10144;50.874;4.762;2023-05-29T02:43:16;22.33;;;5.77;;
19965;SDS011;10144;50.874;4.762;2023-05-29T02:48:24;16.40;;;5.83;;
19965;SDS011;10144;50.874;4.762;2023-05-29T02:50:54;17.07;;;4.83;;
19965;SDS011;10144;50.874;4.762;2023-05-29T02:53:20;14.30;;;4.73;;
19965;SDS011;10144;50.874;4.762;2023-05-29T02:58:16;17.63;;;5.00;;
19965;SDS011;10144;50.874;4.762;2023-05-29T03:00:45;19.27;;;4.80;;
19965;SDS011;10144;50.874;4.762;2023-05-29T03:03:11;18.33;;;5.10;;
19965;SDS011;10144;50.874;4.762;2023-05-29T03:05:37;16.37;;;5.00;;
19965;SDS011;10144;50.874;4.762;2023-05-29T03:08:03;13.97;;;4.90;;
19965;SDS011;10144;50.874;4.762;2023-05-29T03:10:30;15.17;;;4.50;;
19965;SDS011;10144;50.874;4.762;2023-05-29T03:15:57;16.30;;;4.43;;
19965;SDS011;10144;50.874;4.762;2023-05-29T03:18:26;12.63;;;4.30;;
19965;SDS011;10144;50.874;4.762;2023-05-29T03:20:53;11.87;;;4.07;;
19965;SDS011;10144;50.874;4.762;2023-05-29T03:23:22;16.87;;;4.50;;
19965;SDS011;10144;50.874;4.762;2023-05-29T03:25:51;16.67;;;4.27;;
19965;SDS011;10144;50.874;4.762;2023-05-29T03:28:20;12.57;;;3.87;;
19965;SDS011;10144;50.874;4.762;2023-05-29T03:30:46;16.47;;;3.77;;
19965;SDS011;10144;50.874;4.762;2023-05-29T03:33:18;16.70;;;4.17;;
19965;SDS011;10144;50.874;4.762;2023-05-29T03:35:44;20.80;;;3.73;;
19965;SDS011;10144;50.874;4.762;2023-05-29T03:38:11;15.30;;;3.87;;
19965;SDS011;10144;50.874;4.762;2023-05-29T03:40:52;14.17;;;4.03;;
19965;SDS011;10144;50.874;4.762;2023-05-29T03:43:25;11.23;;;3.70;;
19965;SDS011;10144;50.874;4.762;2023-05-29T03:45:53;13.57;;;3.27;;
19965;SDS011;10144;50.874;4.762;2023-05-29T03:48:20;13.13;;;3.40;;
19965;SDS011;10144;50.874;4.762;2023-05-29T03:51:02;16.53;;;3.13;;
19965;SDS011;10144;50.874;4.762;2023-05-29T03:56:00;11.10;;;2.93;;
19965;SDS011;10144;50.874;4.762;2023-05-29T03:58:32;12.97;;;3.10;;
19965;SDS011;10144;50.874;4.762;2023-05-29T04:06:29;14.77;;;2.97;;
19965;SDS011;10144;50.874;4.762;2023-05-29T04:09:00;14.03;;;2.97;;
19965;SDS011;10144;50.874;4.762;2023-05-29T04:11:32;14.43;;;3.13;;
19965;SDS011;10144;50.874;4.762;2023-05-29T04:17:07;11.60;;;2.90;;
19965;SDS011;10144;50.874;4.762;2023-05-29T04:19:38;14.10;;;2.70;;
19965;SDS011;10144;50.874;4.762;2023-05-29T04:22:05;12.50;;;2.50;;
19965;SDS011;10144;50.874;4.762;2023-05-29T04:24:42;11.53;;;2.27;;
19965;SDS011;10144;50.874;4.762;2023-05-29T04:27:11;9.50;;;2.13;;
19965;SDS011;10144;50.874;4.762;2023-05-29T04:29:41;10.63;;;2.50;;
19965;SDS011;10144;50.874;4.762;2023-05-29T04:32:10;11.30;;;2.30;;
19965;SDS011;10144;50.874;4.762;2023-05-29T04:34:36;11.23;;;2.40;;
19965;SDS011;10144;50.874;4.762;2023-05-29T04:37:04;10.13;;;2.60;;
19965;SDS011;10144;50.874;4.762;2023-05-29T04:39:32;11.37;;;2.30;;
19965;SDS011;10144;50.874;4.762;2023-05-29T04:42:01;10.40;;;2.50;;
19965;SDS011;10144;50.874;4.762;2023-05-29T04:44:26;12.93;;;2.50;;
19965;SDS011;10144;50.874;4.762;2023-05-29T04:46:54;18.40;;;2.70;;
19965;SDS011;10144;50.874;4.762;2023-05-29T04:49:27;10.63;;;2.20;;
19965;SDS011;10144;50.874;4.762;2023-05-29T04:51:56;10.57;;;2.67;;
19965;SDS011;10144;50.874;4.762;2023-05-29T04:56:57;9.70;;;2.33;;
19965;SDS011;10144;50.874;4.762;2023-05-29T05:01:51;10.97;;;2.93;;
19965;SDS011;10144;50.874;4.762;2023-05-29T05:06:49;12.03;;;2.10;;
19965;SDS011;10144;50.874;4.762;2023-05-29T05:11:47;10.05;;;1.83;;
19965;SDS011;10144;50.874;4.762;2023-05-29T05:14:13;17.30;;;2.33;;
19965;SDS011;10144;50.874;4.762;2023-05-29T05:16:42;9.02;;;1.92;;
19965;SDS011;10144;50.874;4.762;2023-05-29T05:21:40;10.48;;;2.22;;
19965;SDS011;10144;50.874;4.762;2023-05-29T05:24:12;10.68;;;2.13;;
19965;SDS011;10144;50.874;4.762;2023-05-29T05:26:40;9.73;;;2.15;;
19965;SDS011;10144;50.874;4.762;2023-05-29T05:29:06;10.27;;;2.30;;
19965;SDS011;10144;50.874;4.762;2023-05-29T05:31:35;15.90;;;2.53;;
19965;SDS011;10144;50.874;4.762;2023-05-29T05:34:01;8.70;;;2.28;;
19965;SDS011;10144;50.874;4.762;2023-05-29T05:36:29;9.80;;;2.33;;
19965;SDS011;10144;50.874;4.762;2023-05-29T05:41:48;10.73;;;2.50;;
19965;SDS011;10144;50.874;4.762;2023-05-29T05:44:17;12.80;;;2.28;;
19965;SDS011;10144;50.874;4.762;2023-05-29T05:46:46;8.88;;;2.05;;
19965;SDS011;10144;50.874;4.762;2023-05-29T05:49:12;12.70;;;2.30;;
19965;SDS011;10144;50.874;4.762;2023-05-29T05:51:39;12.75;;;2.22;;
19965;SDS011;10144;50.874;4.762;2023-05-29T05:54:04;8.73;;;1.83;;
19965;SDS011;10144;50.874;4.762;2023-05-29T05:56:30;13.30;;;2.03;;
19965;SDS011;10144;50.874;4.762;2023-05-29T05:58:56;12.70;;;2.40;;
19965;SDS011;10144;50.874;4.762;2023-05-29T06:01:21;9.30;;;2.22;;
19965;SDS011;10144;50.874;4.762;2023-05-29T06:03:47;14.45;;;2.20;;
19965;SDS011;10144;50.874;4.762;2023-05-29T06:06:13;10.07;;;1.98;;
19965;SDS011;10144;50.874;4.762;2023-05-29T06:08:39;11.35;;;2.55;;
19965;SDS011;10144;50.874;4.762;2023-05-29T06:11:07;12.15;;;2.00;;
19965;SDS011;10144;50.874;4.762;2023-05-29T06:13:33;8.93;;;2.10;;
19965;SDS011;10144;50.874;4.762;2023-05-29T06:15:58;13.15;;;2.20;;
19965;SDS011;10144;50.874;4.762;2023-05-29T06:18:24;7.70;;;2.15;;
19965;SDS011;10144;50.874;4.762;2023-05-29T06:20:50;10.63;;;2.00;;
19965;SDS011;10144;50.874;4.762;2023-05-29T06:23:16;12.52;;;2.40;;
19965;SDS011;10144;50.874;4.762;2023-05-29T06:25:42;11.07;;;1.80;;
19965;SDS011;10144;50.874;4.762;2023-05-29T06:28:08;15.63;;;2.55;;
19965;SDS011;10144;50.874;4.762;2023-05-29T06:30:33;13.85;;;2.33;;
19965;SDS011;10144;50.874;4.762;2023-05-29T06:32:59;11.90;;;2.42;;
19965;SDS011;10144;50.874;4.762;2023-05-29T06:35:25;8.85;;;1.92;;
19965;SDS011;10144;50.874;4.762;2023-05-29T06:40:19;11.30;;;2.05;;
19965;SDS011;10144;50.874;4.762;2023-05-29T06:42:45;9.48;;;1.92;;
19965;SDS011;10144;50.874;4.762;2023-05-29T06:45:11;10.23;;;1.92;;
19965;SDS011;10144;50.874;4.762;2023-05-29T06:47:40;15.25;;;2.47;;
19965;SDS011;10144;50.874;4.762;2023-05-29T06:50:07;9.40;;;2.03;;
19965;SDS011;10144;50.874;4.762;2023-05-29T06:52:33;7.57;;;2.13;;
19965;SDS011;10144;50.874;4.762;2023-05-29T06:54:59;12.68;;;1.73;;
19965;SDS011;10144;50.874;4.762;2023-05-29T06:57:26;9.82;;;1.92;;
19965;SDS011;10144;50.874;4.762;2023-05-29T06:59:51;10.38;;;2.17;;
19965;SDS011;10144;50.874;4.762;2023-05-29T07:04:46;12.85;;;2.28;;
19965;SDS011;10144;50.874;4.762;2023-05-29T07:07:24;10.95;;;1.90;;
19965;SDS011;10144;50.874;4.762;2023-05-29T07:09:56;10.95;;;2.33;;
19965;SDS011;10144;50.874;4.762;2023-05-29T07:12:22;7.53;;;1.63;;
19965;SDS011;10144;50.874;4.762;2023-05-29T07:14:50;9.75;;;1.88;;
19965;SDS011;10144;50.874;4.762;2023-05-29T07:17:19;9.48;;;1.98;;
19965;SDS011;10144;50.874;4.762;2023-05-29T07:19:45;9.60;;;1.83;;
19965;SDS011;10144;50.874;4.762;2023-05-29T07:22:11;7.13;;;1.90;;
19965;SDS011;10144;50.874;4.762;2023-05-29T07:24:37;8.60;;;1.80;;
19965;SDS011;10144;50.874;4.762;2023-05-29T07:27:03;7.78;;;1.70;;
19965;SDS011;10144;50.874;4.762;2023-05-29T07:29:28;11.55;;;2.28;;
19965;SDS011;10144;50.874;4.762;2023-05-29T07:31:54;8.93;;;2.38;;
19965;SDS011;10144;50.874;4.762;2023-05-29T07:34:26;9.18;;;1.80;;
19965;SDS011;10144;50.874;4.762;2023-05-29T07:37:03;9.38;;;1.83;;
19965;SDS011;10144;50.874;4.762;2023-05-29T07:39:43;11.20;;;1.88;;
19965;SDS011;10144;50.874;4.762;2023-05-29T07:42:15;11.25;;;2.50;;
19965;SDS011;10144;50.874;4.762;2023-05-29T07:47:13;8.32;;;1.80;;
19965;SDS011;10144;50.874;4.762;2023-05-29T07:49:40;11.68;;;2.28;;
19965;SDS011;10144;50.874;4.762;2023-05-29T07:52:07;9.77;;;2.10;;
19965;SDS011;10144;50.874;4.762;2023-05-29T07:54:33;14.57;;;2.28;;
19965;SDS011;10144;50.874;4.762;2023-05-29T07:56:59;9.10;;;2.00;;
19965;SDS011;10144;50.874;4.762;2023-05-29T07:59:25;11.05;;;2.20;;
19965;SDS011;10144;50.874;4.762;2023-05-29T08:01:51;9.30;;;1.90;;
19965;SDS011;10144;50.874;4.762;2023-05-29T08:04:18;10.15;;;2.10;;
19965;SDS011;10144;50.874;4.762;2023-05-29T08:06:44;11.07;;;2.10;;
19965;SDS011;10144;50.874;4.762;2023-05-29T08:09:16;6.60;;;1.90;;
19965;SDS011;10144;50.874;4.762;2023-05-29T08:16:40;6.68;;;1.80;;
19965;SDS011;10144;50.874;4.762;2023-05-29T08:19:06;7.55;;;2.00;;
19965;SDS011;10144;50.874;4.762;2023-05-29T08:21:35;7.20;;;2.00;;
19965;SDS011;10144;50.874;4.762;2023-05-29T08:24:02;7.90;;;1.50;;
19965;SDS011;10144;50.874;4.762;2023-05-29T08:26:31;6.68;;;1.60;;
19965;SDS011;10144;50.874;4.762;2023-05-29T08:28:57;7.50;;;2.33;;
19965;SDS011;10144;50.874;4.762;2023-05-29T08:31:23;8.05;;;1.92;;
19965;SDS011;10144;50.874;4.762;2023-05-29T08:33:50;8.32;;;1.90;;
19965;SDS011;10144;50.874;4.762;2023-05-29T08:36:16;8.68;;;2.20;;
19965;SDS011;10144;50.874;4.762;2023-05-29T08:38:42;8.00;;;1.80;;
19965;SDS011;10144;50.874;4.762;2023-05-29T08:41:08;9.68;;;2.13;;
19965;SDS011;10144;50.874;4.762;2023-05-29T08:43:41;11.35;;;2.25;;
19965;SDS011;10144;50.874;4.762;2023-05-29T08:46:10;6.78;;;1.85;;
19965;SDS011;10144;50.874;4.762;2023-05-29T08:48:38;9.65;;;2.53;;
19965;SDS011;10144;50.874;4.762;2023-05-29T08:51:06;8.70;;;2.08;;
19965;SDS011;10144;50.874;4.762;2023-05-29T08:53:34;9.68;;;2.40;;
19965;SDS011;10144;50.874;4.762;2023-05-29T08:56:00;16.48;;;2.45;;
19965;SDS011;10144;50.874;4.762;2023-05-29T08:58:28;11.82;;;2.20;;
19965;SDS011;10144;50.874;4.762;2023-05-29T09:00:55;9.20;;;1.98;;
19965;SDS011;10144;50.874;4.762;2023-05-29T09:03:21;8.07;;;2.28;;
19965;SDS011;10144;50.874;4.762;2023-05-29T09:05:47;10.15;;;2.42;;
19965;SDS011;10144;50.874;4.762;2023-05-29T09:08:13;9.05;;;2.13;;
19965;SDS011;10144;50.874;4.762;2023-05-29T09:10:44;8.48;;;2.33;;
19965;SDS011;10144;50.874;4.762;2023-05-29T09:13:13;8.57;;;2.22;;
19965;SDS011;10144;50.874;4.762;2023-05-29T09:15:39;8.43;;;1.90;;
19965;SDS011;10144;50.874;4.762;2023-05-29T09:18:08;10.25;;;2.20;;
19965;SDS011;10144;50.874;4.762;2023-05-29T09:20:34;7.57;;;1.98;;
19965;SDS011;10144;50.874;4.762;2023-05-29T09:23:00;8.77;;;2.30;;
19965;SDS011;10144;50.874;4.762;2023-05-29T09:25:27;9.18;;;2.20;;
19965;SDS011;10144;50.874;4.762;2023-05-29T09:28:05;9.10;;;2.53;;
19965;SDS011;10144;50.874;4.762;2023-05-29T09:30:45;8.68;;;2.20;;
19965;SDS011;10144;50.874;4.762;2023-05-29T09:33:15;9.25;;;2.25;;
19965;SDS011;10144;50.874;4.762;2023-05-29T09:38:08;10.77;;;2.40;;
19965;SDS011;10144;50.874;4.762;2023-05-29T09:40:38;10.38;;;2.13;;
19965;SDS011;10144;50.874;4.762;2023-05-29T09:43:12;8.88;;;1.98;;
19965;SDS011;10144;50.874;4.762;2023-05-29T09:45:39;8.75;;;2.28;;
19965;SDS011;10144;50.874;4.762;2023-05-29T09:48:06;9.18;;;2.33;;
19965;SDS011;10144;50.874;4.762;2023-05-29T09:50:33;9.52;;;2.30;;
19965;SDS011;10144;50.874;4.762;2023-05-29T09:53:00;5.80;;;1.90;;
19965;SDS011;10144;50.874;4.762;2023-05-29T09:55:27;7.32;;;1.95;;
19965;SDS011;10144;50.874;4.762;2023-05-29T09:57:54;9.95;;;2.00;;
19965;SDS011;10144;50.874;4.762;2023-05-29T10:00:20;10.15;;;2.13;;
19965;SDS011;10144;50.874;4.762;2023-05-29T10:02:47;8.55;;;2.03;;
19965;SDS011;10144;50.874;4.762;2023-05-29T10:05:13;11.60;;;2.38;;
19965;SDS011;10144;50.874;4.762;2023-05-29T10:07:42;7.57;;;2.00;;
19965;SDS011;10144;50.874;4.762;2023-05-29T10:10:13;8.02;;;2.20;;
19965;SDS011;10144;50.874;4.762;2023-05-29T10:12:47;8.25;;;2.33;;
19965;SDS011;10144;50.874;4.762;2023-05-29T10:15:14;6.82;;;2.25;;
19965;SDS011;10144;50.874;4.762;2023-05-29T10:20:29;7.60;;;2.00;;
19965;SDS011;10144;50.874;4.762;2023-05-29T10:22:56;10.23;;;2.05;;
19965;SDS011;10144;50.874;4.762;2023-05-29T10:25:26;5.47;;;1.83;;
19965;SDS011;10144;50.874;4.762;2023-05-29T10:27:54;4.88;;;1.92;;
19965;SDS011;10144;50.874;4.762;2023-05-29T10:33:09;7.72;;;2.03;;
19965;SDS011;10144;50.874;4.762;2023-05-29T10:35:53;8.05;;;2.30;;
19965;SDS011;10144;50.874;4.762;2023-05-29T10:38:24;6.15;;;1.88;;
19965;SDS011;10144;50.874;4.762;2023-05-29T10:40:51;6.05;;;2.00;;
19965;SDS011;10144;50.874;4.762;2023-05-29T10:43:30;8.00;;;2.15;;
19965;SDS011;10144;50.874;4.762;2023-05-29T10:46:01;9.68;;;2.22;;
19965;SDS011;10144;50.874;4.762;2023-05-29T10:50:56;8.32;;;1.92;;
19965;SDS011;10144;50.874;4.762;2023-05-29T10:53:23;7.53;;;2.00;;
19965;SDS011;10144;50.874;4.762;2023-05-29T10:55:52;7.90;;;2.13;;
19965;SDS011;10144;50.874;4.762;2023-05-29T10:58:19;9.02;;;1.88;;
19965;SDS011;10144;50.874;4.762;2023-05-29T11:00:50;9.60;;;2.13;;
19965;SDS011;10144;50.874;4.762;2023-05-29T11:03:23;9.68;;;2.03;;
19965;SDS011;10144;50.874;4.762;2023-05-29T11:05:56;7.40;;;2.00;;
19965;SDS011;10144;50.874;4.762;2023-05-29T11:08:44;9.93;;;1.75;;
19965;SDS011;10144;50.874;4.762;2023-05-29T11:13:55;7.88;;;1.98;;
19965;SDS011;10144;50.874;4.762;2023-05-29T11:18:53;6.10;;;2.10;;
19965;SDS011;10144;50.874;4.762;2023-05-29T11:21:25;4.43;;;2.08;;
19965;SDS011;10144;50.874;4.762;2023-05-29T11:23:53;6.97;;;1.90;;
19965;SDS011;10144;50.874;4.762;2023-05-29T11:26:19;10.07;;;1.95;;
19965;SDS011;10144;50.874;4.762;2023-05-29T11:28:49;7.43;;;2.08;;
19965;SDS011;10144;50.874;4.762;2023-05-29T11:31:15;9.48;;;2.20;;
19965;SDS011;10144;50.874;4.762;2023-05-29T11:33:46;10.38;;;2.15;;
19965;SDS011;10144;50.874;4.762;2023-05-29T11:36:15;7.20;;;2.08;;
19965;SDS011;10144;50.874;4.762;2023-05-29T11:41:18;5.57;;;1.90;;
19965;SDS011;10144;50.874;4.762;2023-05-29T11:43:44;6.57;;;2.20;;
19965;SDS011;10144;50.874;4.762;2023-05-29T11:46:18;4.25;;;1.85;;
19965;SDS011;10144;50.874;4.762;2023-05-29T11:48:45;5.20;;;2.03;;
19965;SDS011;10144;50.874;4.762;2023-05-29T11:56:40;9.55;;;2.25;;
19965;SDS011;10144;50.874;4.762;2023-05-29T11:59:13;7.70;;;2.08;;
19965;SDS011;10144;50.874;4.762;2023-05-29T12:01:43;6.53;;;1.92;;
19965;SDS011;10144;50.874;4.762;2023-05-29T12:04:16;6.43;;;1.70;;
19965;SDS011;10144;50.874;4.762;2023-05-29T12:09:26;7.88;;;1.92;;
19965;SDS011;10144;50.874;4.762;2023-05-29T12:11:53;7.65;;;2.30;;
19965;SDS011;10144;50.874;4.762;2023-05-29T12:17:05;6.15;;;1.88;;
19965;SDS011;10144;50.874;4.762;2023-05-29T12:22:41;9.75;;;2.28;;
19965;SDS011;10144;50.874;4.762;2023-05-29T12:25:24;7.43;;;2.00;;
19965;SDS011;10144;50.874;4.762;2023-05-29T12:27:55;8.25;;;2.25;;
19965;SDS011;10144;50.874;4.762;2023-05-29T12:30:21;9.68;;;1.95;;
19965;SDS011;10144;50.874;4.762;2023-05-29T12:32:51;9.80;;;2.00;;
19965;SDS011;10144;50.874;4.762;2023-05-29T12:35:27;10.30;;;2.40;;
19965;SDS011;10144;50.874;4.762;2023-05-29T12:38:07;8.48;;;2.05;;
19965;SDS011;10144;50.874;4.762;2023-05-29T12:40:39;6.32;;;2.30;;
19965;SDS011;10144;50.874;4.762;2023-05-29T12:43:21;6.53;;;2.08;;
19965;SDS011;10144;50.874;4.762;2023-05-29T12:46:02;7.32;;;2.00;;
19965;SDS011;10144;50.874;4.762;2023-05-29T12:48:38;7.53;;;2.00;;
19965;SDS011;10144;50.874;4.762;2023-05-29T12:53:59;6.43;;;2.00;;
19965;SDS011;10144;50.874;4.762;2023-05-29T12:56:27;10.00;;;2.20;;
19965;SDS011;10144;50.874;4.762;2023-05-29T12:58:52;10.73;;;2.08;;
19965;SDS011;10144;50.874;4.762;2023-05-29T13:01:20;6.82;;;1.85;;
19965;SDS011;10144;50.874;4.762;2023-05-29T13:03:46;7.90;;;2.17;;
19965;SDS011;10144;50.874;4.762;2023-05-29T13:06:12;7.25;;;1.90;;
19965;SDS011;10144;50.874;4.762;2023-05-29T13:08:39;7.97;;;2.10;;
19965;SDS011;10144;50.874;4.762;2023-05-29T13:13:39;5.90;;;2.17;;
19965;SDS011;10144;50.874;4.762;2023-05-29T13:16:21;5.30;;;1.73;;
19965;SDS011;10144;50.874;4.762;2023-05-29T13:18:47;9.30;;;2.08;;
19965;SDS011;10144;50.874;4.762;2023-05-29T13:21:14;7.38;;;1.90;;
19965;SDS011;10144;50.874;4.762;2023-05-29T13:23:39;9.07;;;2.17;;
19965;SDS011;10144;50.874;4.762;2023-05-29T13:26:05;7.47;;;2.28;;
19965;SDS011;10144;50.874;4.762;2023-05-29T13:28:31;8.15;;;2.00;;
19965;SDS011;10144;50.874;4.762;2023-05-29T13:30:57;5.72;;;2.00;;
19965;SDS011;10144;50.874;4.762;2023-05-29T13:33:23;10.75;;;2.15;;
19965;SDS011;10144;50.874;4.762;2023-05-29T13:35:49;7.93;;;2.20;;
19965;SDS011;10144;50.874;4.762;2023-05-29T13:38:14;6.88;;;2.35;;
19965;SDS011;10144;50.874;4.762;2023-05-29T13:43:14;10.68;;;2.28;;
19965;SDS011;10144;50.874;4.762;2023-05-29T13:48:11;6.53;;;2.25;;
19965;SDS011;10144;50.874;4.762;2023-05-29T13:53:07;6.70;;;2.30;;
19965;SDS011;10144;50.874;4.762;2023-05-29T13:55:35;9.50;;;2.20;;
19965;SDS011;10144;50.874;4.762;2023-05-29T13:58:05;7.57;;;2.10;;
19965;SDS011;10144;50.874;4.762;2023-05-29T14:00:39;8.32;;;2.20;;
19965;SDS011;10144;50.874;4.762;2023-05-29T14:05:33;6.97;;;1.83;;
19965;SDS011;10144;50.874;4.762;2023-05-29T14:08:00;10.18;;;2.60;;
19965;SDS011;10144;50.874;4.762;2023-05-29T14:10:26;9.98;;;2.38;;
19965;SDS011;10144;50.874;4.762;2023-05-29T14:12:52;10.10;;;2.45;;
19965;SDS011;10144;50.874;4.762;2023-05-29T14:15:20;4.82;;;1.90;;
19965;SDS011;10144;50.874;4.762;2023-05-29T14:17:48;10.40;;;2.38;;
19965;SDS011;10144;50.874;4.762;2023-05-29T14:20:14;8.68;;;2.42;;
19965;SDS011;10144;50.874;4.762;2023-05-29T14:22:41;6.78;;;2.10;;
19965;SDS011;10144;50.874;4.762;2023-05-29T14:25:07;4.90;;;2.13;;
19965;SDS011;10144;50.874;4.762;2023-05-29T14:27:40;5.10;;;2.05;;
19965;SDS011;10144;50.874;4.762;2023-05-29T14:30:06;7.38;;;2.20;;
19965;SDS011;10144;50.874;4.762;2023-05-29T14:32:38;9.55;;;2.13;;
19965;SDS011;10144;50.874;4.762;2023-05-29T14:35:04;7.93;;;2.13;;
19965;SDS011;10144;50.874;4.762;2023-05-29T14:37:30;11.65;;;2.20;;
19965;SDS011;10144;50.874;4.762;2023-05-29T14:39:55;6.60;;;2.33;;
19965;SDS011;10144;50.874;4.762;2023-05-29T14:42:27;5.15;;;1.98;;
19965;SDS011;10144;50.874;4.762;2023-05-29T14:44:53;5.90;;;2.20;;
19965;SDS011;10144;50.874;4.762;2023-05-29T14:47:21;9.18;;;2.28;;
19965;SDS011;10144;50.874;4.762;2023-05-29T14:49:54;7.43;;;2.10;;
19965;SDS011;10144;50.874;4.762;2023-05-29T14:52:21;5.72;;;2.00;;
19965;SDS011;10144;50.874;4.762;2023-05-29T14:54:50;12.57;;;2.33;;
19965;SDS011;10144;50.874;4.762;2023-05-29T14:59:46;5.00;;;2.10;;
19965;SDS011;10144;50.874;4.762;2023-05-29T15:02:17;6.00;;;2.00;;
19965;SDS011;10144;50.874;4.762;2023-05-29T15:04:46;12.45;;;2.50;;
19965;SDS011;10144;50.874;4.762;2023-05-29T15:07:13;7.40;;;2.13;;
19965;SDS011;10144;50.874;4.762;2023-05-29T15:09:41;6.28;;;2.25;;
19965;SDS011;10144;50.874;4.762;2023-05-29T15:12:13;8.30;;;1.95;;
19965;SDS011;10144;50.874;4.762;2023-05-29T15:14:39;7.90;;;2.42;;
19965;SDS011;10144;50.874;4.762;2023-05-29T15:17:04;7.90;;;2.47;;
19965;SDS011;10144;50.874;4.762;2023-05-29T15:19:31;10.50;;;2.40;;
19965;SDS011;10144;50.874;4.762;2023-05-29T15:21:58;12.50;;;2.72;;
19965;SDS011;10144;50.874;4.762;2023-05-29T15:24:26;7.25;;;2.15;;
19965;SDS011;10144;50.874;4.762;2023-05-29T15:26:51;7.50;;;2.30;;
19965;SDS011;10144;50.874;4.762;2023-05-29T15:34:25;7.97;;;2.10;;
19965;SDS011;10144;50.874;4.762;2023-05-29T15:36:51;10.35;;;2.35;;
19965;SDS011;10144;50.874;4.762;2023-05-29T15:39:17;10.45;;;2.30;;
19965;SDS011;10144;50.874;4.762;2023-05-29T15:41:46;9.23;;;3.00;;
19965;SDS011;10144;50.874;4.762;2023-05-29T15:44:12;9.25;;;2.55;;
19965;SDS011;10144;50.874;4.762;2023-05-29T15:46:40;6.15;;;2.03;;
19965;SDS011;10144;50.874;4.762;2023-05-29T15:51:36;5.28;;;2.25;;
19965;SDS011;10144;50.874;4.762;2023-05-29T15:56:43;6.38;;;2.00;;
19965;SDS011;10144;50.874;4.762;2023-05-29T15:59:09;10.45;;;2.20;;
19965;SDS011;10144;50.874;4.762;2023-05-29T16:01:35;12.32;;;2.25;;
19965;SDS011;10144;50.874;4.762;2023-05-29T16:06:46;9.48;;;2.53;;
19965;SDS011;10144;50.874;4.762;2023-05-29T16:09:16;5.85;;;1.90;;
19965;SDS011;10144;50.874;4.762;2023-05-29T16:11:44;7.72;;;2.08;;
19965;SDS011;10144;50.874;4.762;2023-05-29T16:14:13;9.02;;;2.15;;
19965;SDS011;10144;50.874;4.762;2023-05-29T16:16:45;14.27;;;2.30;;
19965;SDS011;10144;50.874;4.762;2023-05-29T16:19:11;5.15;;;1.88;;
19965;SDS011;10144;50.874;4.762;2023-05-29T16:21:37;5.70;;;1.95;;
19965;SDS011;10144;50.874;4.762;2023-05-29T16:24:03;8.25;;;2.22;;
19965;SDS011;10144;50.874;4.762;2023-05-29T16:26:33;7.50;;;1.88;;
19965;SDS011;10144;50.874;4.762;2023-05-29T16:29:04;11.45;;;2.20;;
19965;SDS011;10144;50.874;4.762;2023-05-29T16:34:03;8.65;;;1.88;;
19965;SDS011;10144;50.874;4.762;2023-05-29T16:36:29;5.22;;;1.80;;
19965;SDS011;10144;50.874;4.762;2023-05-29T16:38:59;9.88;;;2.20;;
19965;SDS011;10144;50.874;4.762;2023-05-29T16:41:27;8.02;;;2.42;;
19965;SDS011;10144;50.874;4.762;2023-05-29T16:43:54;6.90;;;2.00;;
19965;SDS011;10144;50.874;4.762;2023-05-29T16:46:22;5.00;;;1.77;;
19965;SDS011;10144;50.874;4.762;2023-05-29T16:48:49;6.57;;;2.03;;
19965;SDS011;10144;50.874;4.762;2023-05-29T16:51:17;5.00;;;1.77;;
19965;SDS011;10144;50.874;4.762;2023-05-29T16:53:45;6.38;;;1.80;;
19965;SDS011;10144;50.874;4.762;2023-05-29T16:56:13;7.38;;;2.10;;
19965;SDS011;10144;50.874;4.762;2023-05-29T16:58:40;11.13;;;2.15;;
19965;SDS011;10144;50.874;4.762;2023-05-29T17:01:09;6.40;;;1.60;;
19965;SDS011;10144;50.874;4.762;2023-05-29T17:06:06;10.45;;;2.08;;
19965;SDS011;10144;50.874;4.762;2023-05-29T17:08:32;12.10;;;2.10;;
19965;SDS011;10144;50.874;4.762;2023-05-29T17:11:01;6.95;;;1.65;;
19965;SDS011;10144;50.874;4.762;2023-05-29T17:13:32;5.20;;;1.90;;
19965;SDS011;10144;50.874;4.762;2023-05-29T17:16:01;6.32;;;1.90;;
19965;SDS011;10144;50.874;4.762;2023-05-29T17:18:29;9.30;;;1.90;;
19965;SDS011;10144;50.874;4.762;2023-05-29T17:20:55;8.40;;;2.33;;
19965;SDS011;10144;50.874;4.762;2023-05-29T17:23:20;9.00;;;2.00;;
19965;SDS011;10144;50.874;4.762;2023-05-29T17:25:51;6.60;;;1.90;;
19965;SDS011;10144;50.874;4.762;2023-05-29T17:28:18;6.95;;;2.20;;
19965;SDS011;10144;50.874;4.762;2023-05-29T17:30:44;6.72;;;1.95;;
19965;SDS011;10144;50.874;4.762;2023-05-29T17:33:13;8.82;;;2.10;;